LGZA

Details ICAO LGZA (ZTH)
Name Dionysios Solomos
Region Greece
Timezone Europe/Athens (UTC+2.0)
Plans Departing 101
Arriving 168
Stats Elevation 14 ft / 4 m (AMSL)
Location 37.751230° 20.884106°
Runways 1
Magnetic Variation 4.073° E
Sunrise 2017-12-18 05:47:49 UTC / 2017-12-18 07:47:49 Local
Sunset 2017-12-18 15:20:59 UTC / 2017-12-18 17:20:59 Local
Advertisement - Login to hide

Runways

ID Width Length Bearing (true) Bearing (mag) Surface Threshold Offset Overrun Length
16 148 ft / 45 m 7,315 ft / 2,230 m 163.49° 159.42° Asphalt 715 ft / 218 m 112 ft / 34 m
34 148 ft / 45 m 7,315 ft / 2,230 m 343.49° 339.42° Asphalt 728 ft / 222 m 135 ft / 41 m

Map

Weather


0- 5 10 15 20 25 30 35+ Temperature / ° C

Clouds and Precipitation
Forecast for 2017-12-18 18:00 UTC. Updated 2 hours ago

Ground ~20,000 ft ~40,000 ft Winds

METAR

LGZA 181350Z 31008KT 9999 SCT025 SCT070 12/07 Q1015

TAF

Not found

Frequencies

Tower 125.42 MHz ZAKINTHOS TWR
Approach 120.65 MHz ANDRAVIDA APP
Warning: Do not use this data for real-world aviation or navigation. No guarantee of current accuracy is given.